sensor_id;sensor_type;location;lat;lon;timestamp;P1;durP1;ratioP1;P2;durP2;ratioP2
20334;SDS011;10325;51.468;5.804;2022-07-12T00:01:59;1.13;;;1.03;;
20334;SDS011;10325;51.468;5.804;2022-07-12T00:04:33;1.33;;;0.80;;
20334;SDS011;10325;51.468;5.804;2022-07-12T00:07:02;1.70;;;1.50;;
20334;SDS011;10325;51.468;5.804;2022-07-12T00:09:38;1.13;;;0.90;;
20334;SDS011;10325;51.468;5.804;2022-07-12T00:12:07;1.93;;;1.27;;
20334;SDS011;10325;51.468;5.804;2022-07-12T00:14:41;1.40;;;1.20;;
20334;SDS011;10325;51.468;5.804;2022-07-12T00:17:22;3.97;;;1.30;;
20334;SDS011;10325;51.468;5.804;2022-07-12T00:19:57;2.03;;;1.40;;
20334;SDS011;10325;51.468;5.804;2022-07-12T00:22:27;1.30;;;1.20;;
20334;SDS011;10325;51.468;5.804;2022-07-12T00:24:59;2.40;;;1.17;;
20334;SDS011;10325;51.468;5.804;2022-07-12T00:27:31;2.03;;;1.20;;
20334;SDS011;10325;51.468;5.804;2022-07-12T00:30:04;1.27;;;1.17;;
20334;SDS011;10325;51.468;5.804;2022-07-12T00:32:35;1.27;;;1.17;;
20334;SDS011;10325;51.468;5.804;2022-07-12T00:35:06;2.53;;;1.53;;
20334;SDS011;10325;51.468;5.804;2022-07-12T00:37:37;2.93;;;1.43;;
20334;SDS011;10325;51.468;5.804;2022-07-12T00:40:07;2.00;;;1.43;;
20334;SDS011;10325;51.468;5.804;2022-07-12T00:42:38;1.87;;;1.60;;
20334;SDS011;10325;51.468;5.804;2022-07-12T00:45:10;3.93;;;1.53;;
20334;SDS011;10325;51.468;5.804;2022-07-12T00:47:45;2.53;;;1.20;;
20334;SDS011;10325;51.468;5.804;2022-07-12T00:50:22;1.43;;;1.13;;
20334;SDS011;10325;51.468;5.804;2022-07-12T00:52:54;2.23;;;1.20;;
20334;SDS011;10325;51.468;5.804;2022-07-12T00:55:26;2.50;;;1.30;;
20334;SDS011;10325;51.468;5.804;2022-07-12T00:57:57;2.63;;;1.30;;
20334;SDS011;10325;51.468;5.804;2022-07-12T01:00:28;1.53;;;1.30;;
20334;SDS011;10325;51.468;5.804;2022-07-12T01:03:01;2.10;;;1.20;;
20334;SDS011;10325;51.468;5.804;2022-07-12T01:05:31;2.43;;;1.43;;
20334;SDS011;10325;51.468;5.804;2022-07-12T01:08:07;2.73;;;1.30;;
20334;SDS011;10325;51.468;5.804;2022-07-12T01:10:41;1.93;;;1.17;;
20334;SDS011;10325;51.468;5.804;2022-07-12T01:13:14;1.80;;;1.27;;
20334;SDS011;10325;51.468;5.804;2022-07-12T01:15:42;1.30;;;1.20;;
20334;SDS011;10325;51.468;5.804;2022-07-12T01:18:12;1.83;;;1.23;;
20334;SDS011;10325;51.468;5.804;2022-07-12T01:20:45;1.13;;;1.00;;
20334;SDS011;10325;51.468;5.804;2022-07-12T01:23:25;3.17;;;1.30;;
20334;SDS011;10325;51.468;5.804;2022-07-12T01:25:58;3.67;;;1.40;;
20334;SDS011;10325;51.468;5.804;2022-07-12T01:28:30;3.50;;;1.20;;
20334;SDS011;10325;51.468;5.804;2022-07-12T01:31:01;1.20;;;1.10;;
20334;SDS011;10325;51.468;5.804;2022-07-12T01:33:33;1.43;;;1.33;;
20334;SDS011;10325;51.468;5.804;2022-07-12T01:36:03;1.93;;;1.10;;
20334;SDS011;10325;51.468;5.804;2022-07-12T01:38:39;6.57;;;1.53;;
20334;SDS011;10325;51.468;5.804;2022-07-12T01:41:08;3.70;;;1.43;;
20334;SDS011;10325;51.468;5.804;2022-07-12T01:43:38;2.13;;;1.10;;
20334;SDS011;10325;51.468;5.804;2022-07-12T01:46:22;5.00;;;1.10;;
20334;SDS011;10325;51.468;5.804;2022-07-12T01:48:53;5.80;;;1.47;;
20334;SDS011;10325;51.468;5.804;2022-07-12T01:51:25;1.40;;;1.13;;
20334;SDS011;10325;51.468;5.804;2022-07-12T01:53:56;4.40;;;1.00;;
20334;SDS011;10325;51.468;5.804;2022-07-12T01:56:27;3.00;;;1.20;;
20334;SDS011;10325;51.468;5.804;2022-07-12T01:58:56;2.13;;;1.00;;
20334;SDS011;10325;51.468;5.804;2022-07-12T02:01:28;2.93;;;1.50;;
20334;SDS011;10325;51.468;5.804;2022-07-12T02:04:03;5.83;;;1.43;;
20334;SDS011;10325;51.468;5.804;2022-07-12T02:06:35;3.17;;;1.23;;
20334;SDS011;10325;51.468;5.804;2022-07-12T02:09:09;1.67;;;1.07;;
20334;SDS011;10325;51.468;5.804;2022-07-12T02:11:39;2.63;;;1.10;;
20334;SDS011;10325;51.468;5.804;2022-07-12T02:14:11;2.33;;;1.10;;
20334;SDS011;10325;51.468;5.804;2022-07-12T02:16:44;2.27;;;1.27;;
20334;SDS011;10325;51.468;5.804;2022-07-12T02:19:15;2.00;;;1.20;;
20334;SDS011;10325;51.468;5.804;2022-07-12T02:21:46;4.57;;;1.40;;
20334;SDS011;10325;51.468;5.804;2022-07-12T02:24:18;4.33;;;1.30;;
20334;SDS011;10325;51.468;5.804;2022-07-12T02:26:55;2.23;;;1.20;;
20334;SDS011;10325;51.468;5.804;2022-07-12T02:29:30;2.30;;;1.33;;
20334;SDS011;10325;51.468;5.804;2022-07-12T02:32:00;2.67;;;1.50;;
20334;SDS011;10325;51.468;5.804;2022-07-12T02:34:32;2.87;;;1.30;;
20334;SDS011;10325;51.468;5.804;2022-07-12T02:37:05;5.00;;;1.73;;
20334;SDS011;10325;51.468;5.804;2022-07-12T02:39:34;2.13;;;1.30;;
20334;SDS011;10325;51.468;5.804;2022-07-12T02:42:06;4.60;;;1.47;;
20334;SDS011;10325;51.468;5.804;2022-07-12T02:44:35;4.73;;;1.30;;
20334;SDS011;10325;51.468;5.804;2022-07-12T02:47:07;2.20;;;1.40;;
20334;SDS011;10325;51.468;5.804;2022-07-12T02:49:36;3.57;;;1.50;;
20334;SDS011;10325;51.468;5.804;2022-07-12T02:52:06;1.50;;;1.20;;
20334;SDS011;10325;51.468;5.804;2022-07-12T02:54:37;2.57;;;1.10;;
20334;SDS011;10325;51.468;5.804;2022-07-12T02:57:08;4.13;;;1.30;;
20334;SDS011;10325;51.468;5.804;2022-07-12T02:59:40;5.40;;;1.40;;
20334;SDS011;10325;51.468;5.804;2022-07-12T03:02:09;3.33;;;1.30;;
20334;SDS011;10325;51.468;5.804;2022-07-12T03:04:37;3.23;;;1.37;;
20334;SDS011;10325;51.468;5.804;2022-07-12T03:07:09;3.20;;;1.40;;
20334;SDS011;10325;51.468;5.804;2022-07-12T03:09:39;2.20;;;1.30;;
20334;SDS011;10325;51.468;5.804;2022-07-12T03:12:12;1.43;;;1.20;;
20334;SDS011;10325;51.468;5.804;2022-07-12T03:14:43;1.13;;;1.03;;
20334;SDS011;10325;51.468;5.804;2022-07-12T03:17:17;1.63;;;1.13;;
20334;SDS011;10325;51.468;5.804;2022-07-12T03:19:49;1.10;;;1.00;;
20334;SDS011;10325;51.468;5.804;2022-07-12T03:22:19;1.67;;;1.30;;
20334;SDS011;10325;51.468;5.804;2022-07-12T03:24:51;3.03;;;1.40;;
20334;SDS011;10325;51.468;5.804;2022-07-12T03:27:21;1.30;;;1.20;;
20334;SDS011;10325;51.468;5.804;2022-07-12T03:29:57;2.90;;;1.50;;
20334;SDS011;10325;51.468;5.804;2022-07-12T03:32:29;1.53;;;1.23;;
20334;SDS011;10325;51.468;5.804;2022-07-12T03:34:59;1.20;;;1.10;;
20334;SDS011;10325;51.468;5.804;2022-07-12T03:40:20;3.70;;;1.53;;
20334;SDS011;10325;51.468;5.804;2022-07-12T03:42:54;1.97;;;1.10;;
20334;SDS011;10325;51.468;5.804;2022-07-12T03:45:24;1.43;;;1.10;;
20334;SDS011;10325;51.468;5.804;2022-07-12T03:47:52;1.73;;;1.10;;
20334;SDS011;10325;51.468;5.804;2022-07-12T03:50:25;1.80;;;1.03;;
20334;SDS011;10325;51.468;5.804;2022-07-12T03:52:57;3.93;;;1.20;;
20334;SDS011;10325;51.468;5.804;2022-07-12T03:55:31;1.20;;;0.97;;
20334;SDS011;10325;51.468;5.804;2022-07-12T03:58:01;2.77;;;1.10;;
20334;SDS011;10325;51.468;5.804;2022-07-12T04:00:32;5.30;;;1.17;;
20334;SDS011;10325;51.468;5.804;2022-07-12T04:03:04;1.60;;;1.30;;
20334;SDS011;10325;51.468;5.804;2022-07-12T04:05:34;1.50;;;1.20;;
20334;SDS011;10325;51.468;5.804;2022-07-12T04:08:05;1.37;;;1.00;;
20334;SDS011;10325;51.468;5.804;2022-07-12T04:10:37;3.13;;;1.10;;
20334;SDS011;10325;51.468;5.804;2022-07-12T04:13:12;2.37;;;0.90;;
20334;SDS011;10325;51.468;5.804;2022-07-12T04:15:40;1.13;;;0.97;;
20334;SDS011;10325;51.468;5.804;2022-07-12T04:18:23;3.57;;;1.03;;
20334;SDS011;10325;51.468;5.804;2022-07-12T04:20:57;2.03;;;0.90;;
20334;SDS011;10325;51.468;5.804;2022-07-12T04:23:31;1.87;;;0.80;;
20334;SDS011;10325;51.468;5.804;2022-07-12T04:26:00;2.07;;;0.93;;
20334;SDS011;10325;51.468;5.804;2022-07-12T04:28:34;1.93;;;1.00;;
20334;SDS011;10325;51.468;5.804;2022-07-12T04:31:03;2.73;;;1.10;;
20334;SDS011;10325;51.468;5.804;2022-07-12T04:33:36;2.10;;;1.30;;
20334;SDS011;10325;51.468;5.804;2022-07-12T04:36:11;1.00;;;0.83;;
20334;SDS011;10325;51.468;5.804;2022-07-12T04:38:40;1.80;;;1.00;;
20334;SDS011;10325;51.468;5.804;2022-07-12T04:41:12;1.67;;;1.23;;
20334;SDS011;10325;51.468;5.804;2022-07-12T04:43:49;2.67;;;0.93;;
20334;SDS011;10325;51.468;5.804;2022-07-12T04:46:19;2.33;;;1.30;;
20334;SDS011;10325;51.468;5.804;2022-07-12T04:48:47;2.03;;;1.13;;
20334;SDS011;10325;51.468;5.804;2022-07-12T04:51:30;1.20;;;1.10;;
20334;SDS011;10325;51.468;5.804;2022-07-12T04:54:04;1.63;;;1.00;;
20334;SDS011;10325;51.468;5.804;2022-07-12T04:56:37;4.73;;;1.10;;
20334;SDS011;10325;51.468;5.804;2022-07-12T04:59:07;2.17;;;1.20;;
20334;SDS011;10325;51.468;5.804;2022-07-12T05:01:39;2.53;;;1.10;;
20334;SDS011;10325;51.468;5.804;2022-07-12T05:04:17;1.90;;;1.30;;
20334;SDS011;10325;51.468;5.804;2022-07-12T05:06:49;2.57;;;1.50;;
20334;SDS011;10325;51.468;5.804;2022-07-12T05:09:16;2.27;;;1.30;;
20334;SDS011;10325;51.468;5.804;2022-07-12T05:11:47;2.40;;;1.53;;
20334;SDS011;10325;51.468;5.804;2022-07-12T05:14:19;3.27;;;1.43;;
20334;SDS011;10325;51.468;5.804;2022-07-12T05:16:50;2.47;;;1.57;;
20334;SDS011;10325;51.468;5.804;2022-07-12T05:19:22;2.23;;;1.63;;
20334;SDS011;10325;51.468;5.804;2022-07-12T05:21:53;3.57;;;1.87;;
20334;SDS011;10325;51.468;5.804;2022-07-12T05:24:24;2.53;;;2.20;;
20334;SDS011;10325;51.468;5.804;2022-07-12T05:27:10;2.80;;;1.80;;
20334;SDS011;10325;51.468;5.804;2022-07-12T05:29:41;2.33;;;2.10;;
20334;SDS011;10325;51.468;5.804;2022-07-12T05:32:13;3.43;;;2.27;;
20334;SDS011;10325;51.468;5.804;2022-07-12T05:34:44;2.47;;;2.27;;
20334;SDS011;10325;51.468;5.804;2022-07-12T05:37:15;3.17;;;2.73;;
20334;SDS011;10325;51.468;5.804;2022-07-12T05:39:48;2.60;;;2.33;;
20334;SDS011;10325;51.468;5.804;2022-07-12T05:42:18;3.30;;;2.50;;
20334;SDS011;10325;51.468;5.804;2022-07-12T05:44:49;2.80;;;2.40;;
20334;SDS011;10325;51.468;5.804;2022-07-12T05:47:22;9.53;;;2.70;;
20334;SDS011;10325;51.468;5.804;2022-07-12T05:49:52;3.13;;;2.57;;
20334;SDS011;10325;51.468;5.804;2022-07-12T05:52:23;3.93;;;3.00;;
20334;SDS011;10325;51.468;5.804;2022-07-12T05:55:15;4.23;;;2.60;;
20334;SDS011;10325;51.468;5.804;2022-07-12T05:57:51;3.27;;;2.43;;
20334;SDS011;10325;51.468;5.804;2022-07-12T06:00:22;2.73;;;2.53;;
20334;SDS011;10325;51.468;5.804;2022-07-12T06:03:02;3.13;;;2.83;;
20334;SDS011;10325;51.468;5.804;2022-07-12T06:05:33;2.80;;;2.60;;
20334;SDS011;10325;51.468;5.804;2022-07-12T06:08:05;2.90;;;2.60;;
20334;SDS011;10325;51.468;5.804;2022-07-12T06:10:38;3.23;;;2.50;;
20334;SDS011;10325;51.468;5.804;2022-07-12T06:13:11;4.17;;;3.10;;
20334;SDS011;10325;51.468;5.804;2022-07-12T06:15:40;4.10;;;2.77;;
20334;SDS011;10325;51.468;5.804;2022-07-12T06:18:12;3.07;;;2.87;;
20334;SDS011;10325;51.468;5.804;2022-07-12T06:20:45;3.33;;;3.03;;
20334;SDS011;10325;51.468;5.804;2022-07-12T06:23:21;3.20;;;2.90;;
20334;SDS011;10325;51.468;5.804;2022-07-12T06:25:51;3.03;;;2.73;;
20334;SDS011;10325;51.468;5.804;2022-07-12T06:28:22;3.10;;;2.90;;
20334;SDS011;10325;51.468;5.804;2022-07-12T06:30:52;3.03;;;2.73;;
20334;SDS011;10325;51.468;5.804;2022-07-12T06:33:24;4.27;;;2.63;;
20334;SDS011;10325;51.468;5.804;2022-07-12T06:35:52;3.73;;;2.40;;
20334;SDS011;10325;51.468;5.804;2022-07-12T06:38:23;5.77;;;2.57;;
20334;SDS011;10325;51.468;5.804;2022-07-12T06:40:52;4.10;;;2.40;;
20334;SDS011;10325;51.468;5.804;2022-07-12T06:43:24;2.73;;;2.23;;
20334;SDS011;10325;51.468;5.804;2022-07-12T06:45:53;2.20;;;2.00;;
20334;SDS011;10325;51.468;5.804;2022-07-12T06:48:25;2.60;;;2.20;;
20334;SDS011;10325;51.468;5.804;2022-07-12T06:50:55;3.60;;;2.00;;
20334;SDS011;10325;51.468;5.804;2022-07-12T06:53:27;2.60;;;2.27;;
20334;SDS011;10325;51.468;5.804;2022-07-12T06:55:57;3.07;;;2.73;;
20334;SDS011;10325;51.468;5.804;2022-07-12T06:58:28;3.00;;;2.27;;
20334;SDS011;10325;51.468;5.804;2022-07-12T07:00:57;6.37;;;2.60;;
20334;SDS011;10325;51.468;5.804;2022-07-12T07:03:27;3.10;;;2.13;;
20334;SDS011;10325;51.468;5.804;2022-07-12T07:06:00;3.33;;;2.40;;
20334;SDS011;10325;51.468;5.804;2022-07-12T07:08:31;4.63;;;2.40;;
20334;SDS011;10325;51.468;5.804;2022-07-12T07:11:04;2.63;;;2.07;;
20334;SDS011;10325;51.468;5.804;2022-07-12T07:13:35;2.70;;;2.20;;
20334;SDS011;10325;51.468;5.804;2022-07-12T07:16:13;2.80;;;2.00;;
20334;SDS011;10325;51.468;5.804;2022-07-12T07:18:44;2.43;;;2.23;;
20334;SDS011;10325;51.468;5.804;2022-07-12T07:21:15;4.10;;;2.20;;
20334;SDS011;10325;51.468;5.804;2022-07-12T07:23:44;4.20;;;2.60;;
20334;SDS011;10325;51.468;5.804;2022-07-12T07:26:17;4.57;;;2.10;;
20334;SDS011;10325;51.468;5.804;2022-07-12T07:28:49;3.63;;;1.83;;
20334;SDS011;10325;51.468;5.804;2022-07-12T07:31:35;2.10;;;1.90;;
20334;SDS011;10325;51.468;5.804;2022-07-12T07:34:13;2.27;;;2.07;;
20334;SDS011;10325;51.468;5.804;2022-07-12T07:36:53;6.60;;;2.07;;
20334;SDS011;10325;51.468;5.804;2022-07-12T07:39:23;2.53;;;2.20;;
20334;SDS011;10325;51.468;5.804;2022-07-12T07:41:52;4.37;;;2.60;;
20334;SDS011;10325;51.468;5.804;2022-07-12T07:44:21;5.00;;;3.07;;
20334;SDS011;10325;51.468;5.804;2022-07-12T07:46:58;3.13;;;2.67;;
20334;SDS011;10325;51.468;5.804;2022-07-12T07:49:31;3.23;;;2.70;;
20334;SDS011;10325;51.468;5.804;2022-07-12T07:52:03;2.97;;;2.73;;
20334;SDS011;10325;51.468;5.804;2022-07-12T07:54:41;4.30;;;2.60;;
20334;SDS011;10325;51.468;5.804;2022-07-12T07:57:15;3.43;;;2.63;;
20334;SDS011;10325;51.468;5.804;2022-07-12T07:59:43;2.83;;;2.10;;
20334;SDS011;10325;51.468;5.804;2022-07-12T08:02:11;2.53;;;2.00;;
20334;SDS011;10325;51.468;5.804;2022-07-12T08:04:42;4.60;;;2.80;;
20334;SDS011;10325;51.468;5.804;2022-07-12T08:07:10;3.87;;;2.47;;
20334;SDS011;10325;51.468;5.804;2022-07-12T08:10:01;2.77;;;1.93;;
20334;SDS011;10325;51.468;5.804;2022-07-12T08:12:37;5.13;;;2.27;;
20334;SDS011;10325;51.468;5.804;2022-07-12T08:15:05;2.00;;;1.90;;
20334;SDS011;10325;51.468;5.804;2022-07-12T08:17:33;2.13;;;1.83;;
20334;SDS011;10325;51.468;5.804;2022-07-12T08:20:11;6.03;;;2.30;;
20334;SDS011;10325;51.468;5.804;2022-07-12T08:23:01;2.10;;;1.90;;
20334;SDS011;10325;51.468;5.804;2022-07-12T08:25:31;2.50;;;1.67;;
20334;SDS011;10325;51.468;5.804;2022-07-12T08:28:01;2.73;;;1.60;;
20334;SDS011;10325;51.468;5.804;2022-07-12T08:30:30;2.97;;;1.90;;
20334;SDS011;10325;51.468;5.804;2022-07-12T08:33:08;3.50;;;1.97;;
20334;SDS011;10325;51.468;5.804;2022-07-12T08:35:37;2.90;;;1.80;;
20334;SDS011;10325;51.468;5.804;2022-07-12T08:38:08;3.77;;;1.77;;
20334;SDS011;10325;51.468;5.804;2022-07-12T08:40:41;3.60;;;1.80;;
20334;SDS011;10325;51.468;5.804;2022-07-12T08:43:24;2.13;;;1.40;;
20334;SDS011;10325;51.468;5.804;2022-07-12T08:46:02;2.97;;;1.60;;
20334;SDS011;10325;51.468;5.804;2022-07-12T08:48:35;3.33;;;1.57;;
20334;SDS011;10325;51.468;5.804;2022-07-12T08:51:12;2.17;;;1.70;;
20334;SDS011;10325;51.468;5.804;2022-07-12T08:53:41;1.40;;;1.30;;
20334;SDS011;10325;51.468;5.804;2022-07-12T08:56:34;1.80;;;1.40;;
20334;SDS011;10325;51.468;5.804;2022-07-12T09:01:54;1.50;;;1.40;;
20334;SDS011;10325;51.468;5.804;2022-07-12T09:04:26;7.43;;;1.50;;
20334;SDS011;10325;51.468;5.804;2022-07-12T09:07:00;2.20;;;1.67;;
20334;SDS011;10325;51.468;5.804;2022-07-12T09:09:45;1.73;;;1.30;;
20334;SDS011;10325;51.468;5.804;2022-07-12T09:12:21;1.57;;;1.47;;
20334;SDS011;10325;51.468;5.804;2022-07-12T09:14:54;1.77;;;1.40;;
20334;SDS011;10325;51.468;5.804;2022-07-12T09:18:02;1.80;;;1.70;;
20334;SDS011;10325;51.468;5.804;2022-07-12T09:20:42;2.00;;;1.80;;
20334;SDS011;10325;51.468;5.804;2022-07-12T09:23:18;1.93;;;1.73;;
20334;SDS011;10325;51.468;5.804;2022-07-12T09:25:47;1.83;;;1.50;;
20334;SDS011;10325;51.468;5.804;2022-07-12T09:28:17;2.00;;;1.77;;
20334;SDS011;10325;51.468;5.804;2022-07-12T09:30:51;2.23;;;1.67;;
20334;SDS011;10325;51.468;5.804;2022-07-12T09:33:24;1.73;;;1.63;;
20334;SDS011;10325;51.468;5.804;2022-07-12T09:36:12;1.90;;;1.70;;
20334;SDS011;10325;51.468;5.804;2022-07-12T09:38:53;1.30;;;1.20;;
20334;SDS011;10325;51.468;5.804;2022-07-12T09:41:38;4.70;;;1.60;;
20334;SDS011;10325;51.468;5.804;2022-07-12T09:44:15;2.60;;;1.30;;
20334;SDS011;10325;51.468;5.804;2022-07-12T09:46:50;2.00;;;1.77;;
20334;SDS011;10325;51.468;5.804;2022-07-12T09:49:46;1.57;;;1.40;;
20334;SDS011;10325;51.468;5.804;2022-07-12T09:52:25;1.70;;;1.60;;
20334;SDS011;10325;51.468;5.804;2022-07-12T09:55:11;1.80;;;1.70;;
20334;SDS011;10325;51.468;5.804;2022-07-12T09:57:41;1.70;;;1.60;;
20334;SDS011;10325;51.468;5.804;2022-07-12T10:00:13;1.80;;;1.70;;
20334;SDS011;10325;51.468;5.804;2022-07-12T10:02:42;1.90;;;1.70;;
20334;SDS011;10325;51.468;5.804;2022-07-12T10:05:13;2.70;;;1.30;;
20334;SDS011;10325;51.468;5.804;2022-07-12T10:07:47;1.67;;;1.57;;
20334;SDS011;10325;51.468;5.804;2022-07-12T10:10:16;1.70;;;1.60;;
20334;SDS011;10325;51.468;5.804;2022-07-12T10:12:51;1.83;;;1.73;;
20334;SDS011;10325;51.468;5.804;2022-07-12T10:15:22;1.50;;;1.40;;
20334;SDS011;10325;51.468;5.804;2022-07-12T10:18:00;1.80;;;1.40;;
20334;SDS011;10325;51.468;5.804;2022-07-12T10:20:49;2.37;;;1.53;;
20334;SDS011;10325;51.468;5.804;2022-07-12T10:25:48;3.20;;;1.80;;
20334;SDS011;10325;51.468;5.804;2022-07-12T10:28:21;2.20;;;1.70;;
20334;SDS011;10325;51.468;5.804;2022-07-12T10:30:53;3.27;;;1.97;;
20334;SDS011;10325;51.468;5.804;2022-07-12T10:33:24;2.10;;;1.90;;
20334;SDS011;10325;51.468;5.804;2022-07-12T10:36:07;2.20;;;1.60;;
20334;SDS011;10325;51.468;5.804;2022-07-12T10:39:13;2.73;;;1.60;;
20334;SDS011;10325;51.468;5.804;2022-07-12T10:41:41;1.90;;;1.80;;
20334;SDS011;10325;51.468;5.804;2022-07-12T10:44:11;3.63;;;2.03;;
20334;SDS011;10325;51.468;5.804;2022-07-12T10:47:06;2.33;;;2.13;;
20334;SDS011;10325;51.468;5.804;2022-07-12T10:49:52;2.13;;;1.90;;
20334;SDS011;10325;51.468;5.804;2022-07-12T10:52:25;3.53;;;2.10;;
20334;SDS011;10325;51.468;5.804;2022-07-12T10:58:02;1.93;;;1.80;;
20334;SDS011;10325;51.468;5.804;2022-07-12T11:00:27;2.90;;;1.90;;
20334;SDS011;10325;51.468;5.804;2022-07-12T11:02:59;2.50;;;1.87;;
20334;SDS011;10325;51.468;5.804;2022-07-12T11:05:29;1.97;;;1.70;;
20334;SDS011;10325;51.468;5.804;2022-07-12T11:08:05;2.10;;;1.90;;
20334;SDS011;10325;51.468;5.804;2022-07-12T11:10:57;1.83;;;1.70;;
20334;SDS011;10325;51.468;5.804;2022-07-12T11:13:25;1.70;;;1.60;;
20334;SDS011;10325;51.468;5.804;2022-07-12T11:16:02;1.93;;;1.83;;
20334;SDS011;10325;51.468;5.804;2022-07-12T11:18:33;1.80;;;1.70;;
20334;SDS011;10325;51.468;5.804;2022-07-12T11:21:04;1.93;;;1.70;;
20334;SDS011;10325;51.468;5.804;2022-07-12T11:23:36;1.60;;;1.50;;
20334;SDS011;10325;51.468;5.804;2022-07-12T11:26:10;1.70;;;1.60;;
20334;SDS011;10325;51.468;5.804;2022-07-12T11:28:43;1.70;;;1.60;;
20334;SDS011;10325;51.468;5.804;2022-07-12T11:31:18;1.77;;;1.67;;
20334;SDS011;10325;51.468;5.804;2022-07-12T11:33:51;2.17;;;1.70;;
20334;SDS011;10325;51.468;5.804;2022-07-12T11:36:24;1.67;;;1.57;;
20334;SDS011;10325;51.468;5.804;2022-07-12T11:38:57;1.60;;;1.50;;
20334;SDS011;10325;51.468;5.804;2022-07-12T11:41:25;1.63;;;1.43;;
20334;SDS011;10325;51.468;5.804;2022-07-12T11:43:56;2.37;;;1.70;;
20334;SDS011;10325;51.468;5.804;2022-07-12T11:46:28;1.87;;;1.77;;
20334;SDS011;10325;51.468;5.804;2022-07-12T11:48:56;3.63;;;1.63;;
20334;SDS011;10325;51.468;5.804;2022-07-12T11:51:27;1.97;;;1.70;;
20334;SDS011;10325;51.468;5.804;2022-07-12T11:54:14;1.70;;;1.60;;
20334;SDS011;10325;51.468;5.804;2022-07-12T11:56:46;1.60;;;1.50;;
20334;SDS011;10325;51.468;5.804;2022-07-12T11:59:21;1.77;;;1.57;;
20334;SDS011;10325;51.468;5.804;2022-07-12T12:04:53;1.80;;;1.70;;
20334;SDS011;10325;51.468;5.804;2022-07-12T12:07:27;1.57;;;1.47;;
20334;SDS011;10325;51.468;5.804;2022-07-12T12:10:12;1.70;;;1.60;;
20334;SDS011;10325;51.468;5.804;2022-07-12T12:12:50;1.53;;;1.40;;
20334;SDS011;10325;51.468;5.804;2022-07-12T12:15:28;1.63;;;1.53;;
20334;SDS011;10325;51.468;5.804;2022-07-12T12:18:05;2.70;;;1.53;;
20334;SDS011;10325;51.468;5.804;2022-07-12T12:20:56;2.70;;;1.30;;
20334;SDS011;10325;51.468;5.804;2022-07-12T12:23:28;1.57;;;1.47;;
20334;SDS011;10325;51.468;5.804;2022-07-12T12:28:53;1.53;;;1.43;;
20334;SDS011;10325;51.468;5.804;2022-07-12T12:31:24;1.60;;;1.50;;
20334;SDS011;10325;51.468;5.804;2022-07-12T12:33:53;1.50;;;1.40;;
20334;SDS011;10325;51.468;5.804;2022-07-12T12:36:27;1.60;;;1.50;;
20334;SDS011;10325;51.468;5.804;2022-07-12T12:39:00;1.60;;;1.50;;
20334;SDS011;10325;51.468;5.804;2022-07-12T12:41:38;1.40;;;1.30;;
20334;SDS011;10325;51.468;5.804;2022-07-12T12:44:19;2.80;;;1.40;;
20334;SDS011;10325;51.468;5.804;2022-07-12T12:47:06;2.80;;;1.63;;
20334;SDS011;10325;51.468;5.804;2022-07-12T12:49:56;1.53;;;1.30;;
20334;SDS011;10325;51.468;5.804;2022-07-12T12:52:46;2.93;;;1.40;;
20334;SDS011;10325;51.468;5.804;2022-07-12T12:55:19;1.63;;;1.43;;
20334;SDS011;10325;51.468;5.804;2022-07-12T12:57:52;1.57;;;1.27;;
20334;SDS011;10325;51.468;5.804;2022-07-12T13:00:28;1.70;;;1.50;;
20334;SDS011;10325;51.468;5.804;2022-07-12T13:03:00;1.37;;;1.30;;
20334;SDS011;10325;51.468;5.804;2022-07-12T13:05:32;1.50;;;1.30;;
20334;SDS011;10325;51.468;5.804;2022-07-12T13:08:07;1.10;;;1.00;;
20334;SDS011;10325;51.468;5.804;2022-07-12T13:10:39;1.10;;;1.10;;
20334;SDS011;10325;51.468;5.804;2022-07-12T13:13:10;1.53;;;1.40;;
20334;SDS011;10325;51.468;5.804;2022-07-12T13:15:45;1.50;;;1.40;;
20334;SDS011;10325;51.468;5.804;2022-07-12T13:18:18;1.27;;;1.17;;
20334;SDS011;10325;51.468;5.804;2022-07-12T13:20:49;2.37;;;1.03;;
20334;SDS011;10325;51.468;5.804;2022-07-12T13:23:16;1.03;;;1.03;;
20334;SDS011;10325;51.468;5.804;2022-07-12T13:25:44;1.30;;;1.10;;
20334;SDS011;10325;51.468;5.804;2022-07-12T13:28:22;1.17;;;1.07;;
20334;SDS011;10325;51.468;5.804;2022-07-12T13:30:53;1.30;;;1.20;;
20334;SDS011;10325;51.468;5.804;2022-07-12T13:33:23;1.30;;;1.20;;
20334;SDS011;10325;51.468;5.804;2022-07-12T13:35:52;2.70;;;1.40;;
20334;SDS011;10325;51.468;5.804;2022-07-12T13:38:24;1.33;;;1.23;;
20334;SDS011;10325;51.468;5.804;2022-07-12T13:40:56;1.10;;;1.00;;
20334;SDS011;10325;51.468;5.804;2022-07-12T13:43:25;2.27;;;1.10;;
20334;SDS011;10325;51.468;5.804;2022-07-12T13:45:55;1.43;;;1.33;;
20334;SDS011;10325;51.468;5.804;2022-07-12T13:48:25;1.87;;;1.30;;
20334;SDS011;10325;51.468;5.804;2022-07-12T13:50:56;2.20;;;1.50;;
20334;SDS011;10325;51.468;5.804;2022-07-12T13:53:50;2.43;;;1.50;;
20334;SDS011;10325;51.468;5.804;2022-07-12T13:56:19;1.60;;;1.23;;
20334;SDS011;10325;51.468;5.804;2022-07-12T13:58:51;2.27;;;1.30;;
20334;SDS011;10325;51.468;5.804;2022-07-12T14:01:23;1.40;;;1.30;;
20334;SDS011;10325;51.468;5.804;2022-07-12T14:03:54;1.27;;;1.03;;
20334;SDS011;10325;51.468;5.804;2022-07-12T14:06:24;1.30;;;1.20;;
20334;SDS011;10325;51.468;5.804;2022-07-12T14:08:58;1.30;;;1.20;;
20334;SDS011;10325;51.468;5.804;2022-07-12T14:11:28;1.50;;;1.40;;
20334;SDS011;10325;51.468;5.804;2022-07-12T14:13:58;1.50;;;1.40;;
20334;SDS011;10325;51.468;5.804;2022-07-12T14:16:31;1.53;;;1.27;;
20334;SDS011;10325;51.468;5.804;2022-07-12T14:19:03;1.57;;;1.30;;
20334;SDS011;10325;51.468;5.804;2022-07-12T14:21:35;11.63;;;1.70;;
20334;SDS011;10325;51.468;5.804;2022-07-12T14:24:07;1.13;;;1.10;;
20334;SDS011;10325;51.468;5.804;2022-07-12T14:26:39;1.30;;;1.20;;
20334;SDS011;10325;51.468;5.804;2022-07-12T14:29:08;1.40;;;1.30;;
20334;SDS011;10325;51.468;5.804;2022-07-12T14:31:44;1.80;;;1.70;;
20334;SDS011;10325;51.468;5.804;2022-07-12T14:34:16;2.07;;;1.50;;
20334;SDS011;10325;51.468;5.804;2022-07-12T14:36:54;4.70;;;1.30;;
20334;SDS011;10325;51.468;5.804;2022-07-12T14:39:28;1.50;;;1.40;;
20334;SDS011;10325;51.468;5.804;2022-07-12T14:41:59;1.47;;;1.33;;
20334;SDS011;10325;51.468;5.804;2022-07-12T14:44:35;1.50;;;1.40;;
20334;SDS011;10325;51.468;5.804;2022-07-12T14:47:09;1.73;;;1.40;;
20334;SDS011;10325;51.468;5.804;2022-07-12T14:49:44;1.57;;;1.47;;
20334;SDS011;10325;51.468;5.804;2022-07-12T14:52:27;2.07;;;1.47;;
20334;SDS011;10325;51.468;5.804;2022-07-12T14:54:56;3.30;;;1.47;;
20334;SDS011;10325;51.468;5.804;2022-07-12T14:57:26;1.53;;;1.43;;
20334;SDS011;10325;51.468;5.804;2022-07-12T14:59:56;1.77;;;1.50;;
20334;SDS011;10325;51.468;5.804;2022-07-12T15:02:27;1.87;;;1.77;;
20334;SDS011;10325;51.468;5.804;2022-07-12T15:04:57;1.70;;;1.37;;
20334;SDS011;10325;51.468;5.804;2022-07-12T15:07:34;1.43;;;1.33;;
20334;SDS011;10325;51.468;5.804;2022-07-12T15:10:04;1.53;;;1.43;;
20334;SDS011;10325;51.468;5.804;2022-07-12T15:12:36;1.87;;;1.40;;
20334;SDS011;10325;51.468;5.804;2022-07-12T15:15:06;3.60;;;1.50;;
20334;SDS011;10325;51.468;5.804;2022-07-12T15:17:38;1.40;;;1.30;;
20334;SDS011;10325;51.468;5.804;2022-07-12T15:20:10;1.67;;;1.50;;
20334;SDS011;10325;51.468;5.804;2022-07-12T15:22:39;1.70;;;1.60;;
20334;SDS011;10325;51.468;5.804;2022-07-12T15:25:12;1.50;;;1.40;;
20334;SDS011;10325;51.468;5.804;2022-07-12T15:27:42;2.58;;;1.42;;
20334;SDS011;10325;51.468;5.804;2022-07-12T15:30:13;2.03;;;1.10;;
20334;SDS011;10325;51.468;5.804;2022-07-12T15:32:44;1.77;;;1.50;;
20334;SDS011;10325;51.468;5.804;2022-07-12T15:35:20;1.60;;;1.50;;
20334;SDS011;10325;51.468;5.804;2022-07-12T15:37:48;1.70;;;1.60;;
20334;SDS011;10325;51.468;5.804;2022-07-12T15:40:20;2.73;;;1.73;;
20334;SDS011;10325;51.468;5.804;2022-07-12T15:42:50;1.53;;;1.43;;